ESGP/GSE METAR and TAF weather

Enter ICAO airport designator
Station Type Date Time Source
ESGP METAR 2023/02/04 03:20 UTC NOAA

ESGP 040320Z AUTO 00000KT 9999 NCD M08/M09 Q1034


Station Type Date Time Source
ESGP Decoded METAR 2023/02/04 03:20 UTC NOAA

Goteborg / Save, Sweden (ESGP) 57-47N 011-53E 53M
Feb 03, 2023 - 10:20 PM EST / 2023.02.04 0320 UTC
Wind: Calm:0
Visibility: greater than 7 mile(s):0
Temperature: 17 F (-8 C)
Dew Point: 15 F (-9 C)
Relative Humidity: 92%
Pressure (altimeter): 30.53 in. Hg (1034 hPa)
ob: ESGP 040320Z AUTO 00000KT 9999 NCD M08/M09 Q1034
cycle: 3

Station Type Date Time Source
ESGP TAF 2022/06/29 06:09 UTC NOAA

TAF TAF ESGP 290530Z 2906/2918 28005KT CAVOK

Example: see airport list